Time;durP1;ratioP1;P1;durP2;ratioP2;P2;SDS_P1;SDS_P2;PMS_P1;PMS_P2;Temp;Humidity;BMP_temperature;BMP_pressure;BME280_temperature;BME280_humidity;BME280_pressure;Samples;Min_cycle;Max_cycle;Signal;HPM_P1;HPM_P2
2021/09/03 00:00:40;;;;;;;5.68;5.05;;;19.60;67.30;;;;;;20829965;28;20030;-63
2021/09/03 00:10:41;;;;;;;6.43;5.22;;;19.70;67.30;;;;;;20829460;28;20029;-63
2021/09/03 00:20:41;;;;;;;8.10;5.53;;;19.70;67.20;;;;;;20828835;28;20029;-65
2021/09/03 00:30:42;;;;;;;9.93;5.13;;;19.60;67.00;;;;;;20827973;28;20025;-64
2021/09/03 00:40:42;;;;;;;6.82;5.13;;;19.60;67.00;;;;;;20827269;28;20590;-63
2021/09/03 00:50:44;;;;;;;8.05;5.28;;;19.60;66.80;;;;;;20826716;28;20029;-64
2021/09/03 01:00:45;;;;;;;8.50;5.40;;;19.60;66.80;;;;;;20819677;22;20047;-63
2021/09/03 01:10:46;;;;;;;8.55;5.72;;;19.60;66.70;;;;;;20786300;28;20496;-62
2021/09/03 01:20:46;;;;;;;6.07;4.93;;;19.60;66.60;;;;;;20823492;28;20033;-62
2021/09/03 01:30:47;;;;;;;7.72;5.45;;;19.50;66.40;;;;;;20822750;28;20034;-63
2021/09/03 01:40:48;;;;;;;6.82;5.80;;;19.50;66.30;;;;;;20821772;28;20030;-63
2021/09/03 01:50:49;;;;;;;7.82;5.50;;;19.50;66.30;;;;;;20821765;28;20030;-62
2021/09/03 02:00:49;;;;;;;8.57;5.60;;;19.50;66.20;;;;;;20820744;28;20033;-62
2021/09/03 02:10:50;;;;;;;8.97;5.80;;;19.50;66.20;;;;;;20820086;28;20060;-61
2021/09/03 02:20:50;;;;;;;6.53;4.57;;;19.50;66.00;;;;;;20819261;28;20463;-61
2021/09/03 02:30:51;;;;;;;7.30;5.45;;;19.40;65.90;;;;;;20818685;28;20080;-59
2021/09/03 02:40:52;;;;;;;7.45;5.07;;;19.40;65.80;;;;;;20818334;28;20053;-58
2021/09/03 02:50:52;;;;;;;6.00;4.47;;;19.40;65.70;;;;;;20818588;28;20579;-62
2021/09/03 03:00:53;;;;;;;6.63;4.77;;;19.40;65.60;;;;;;20834252;28;20041;-59
2021/09/03 03:10:53;;;;;;;6.10;5.13;;;19.40;65.50;;;;;;20819732;28;20426;-59
2021/09/03 03:20:54;;;;;;;7.35;5.18;;;19.50;65.20;;;;;;20832684;28;20631;-59
2021/09/03 03:30:54;;;;;;;6.40;5.00;;;19.40;65.20;;;;;;20831965;28;20552;-58
2021/09/03 03:40:55;;;;;;;5.85;4.70;;;19.40;65.10;;;;;;20831147;28;20061;-62
2021/09/03 03:50:55;;;;;;;6.32;4.97;;;19.40;64.90;;;;;;20830805;28;20037;-62
2021/09/03 04:00:56;;;;;;;7.80;5.10;;;19.40;65.00;;;;;;20829564;28;20038;-58
2021/09/03 04:10:57;;;;;;;7.22;4.80;;;19.30;64.70;;;;;;20828525;28;20078;-61
2021/09/03 04:20:57;;;;;;;8.23;4.97;;;19.30;64.70;;;;;;20828010;28;20493;-63
2021/09/03 04:30:58;;;;;;;5.80;4.53;;;19.30;64.60;;;;;;20827036;28;20060;-59
2021/09/03 04:40:59;;;;;;;6.60;5.43;;;19.30;64.50;;;;;;20827502;28;20037;-62
2021/09/03 04:50:59;;;;;;;6.32;4.30;;;19.40;64.80;;;;;;20866976;28;20067;-62
2021/09/03 05:01:00;;;;;;;10.77;5.53;;;19.40;65.20;;;;;;20898282;28;20149;-54
2021/09/03 05:11:01;;;;;;;26.02;9.57;;;19.30;64.30;;;;;;20907719;28;20025;-60
2021/09/03 05:21:02;;;;;;;16.23;8.40;;;19.10;63.30;;;;;;20904653;28;20040;-58
2021/09/03 05:31:02;;;;;;;19.90;8.32;;;19.10;63.20;;;;;;20904917;28;20029;-53
2021/09/03 05:41:03;;;;;;;17.25;8.45;;;19.10;63.10;;;;;;20902530;28;20039;-61
2021/09/03 05:51:04;;;;;;;16.45;7.13;;;18.90;63.10;;;;;;20903563;28;20032;-60
2021/09/03 06:01:04;;;;;;;10.77;6.20;;;19.00;63.00;;;;;;20902836;28;20466;-57
2021/09/03 06:11:05;;;;;;;14.43;6.53;;;18.90;62.80;;;;;;20901717;28;20039;-53
2021/09/03 06:21:05;;;;;;;9.43;6.35;;;18.90;62.90;;;;;;20901405;28;20044;-59
2021/09/03 06:31:06;;;;;;;10.13;5.75;;;18.90;63.00;;;;;;20901528;28;20040;-59
2021/09/03 06:41:07;;;;;;;9.52;5.85;;;18.90;63.20;;;;;;20899504;28;20029;-57
2021/09/03 06:51:07;;;;;;;10.75;5.18;;;18.90;63.70;;;;;;20895104;28;20055;-60
2021/09/03 07:01:08;;;;;;;7.53;5.65;;;19.20;63.60;;;;;;20896503;28;20487;-58
2021/09/03 07:11:09;;;;;;;14.87;5.13;;;19.30;63.70;;;;;;20898369;28;20035;-58
2021/09/03 07:21:09;;;;;;;7.78;5.03;;;19.40;63.90;;;;;;20900275;28;20442;-60
2021/09/03 07:31:10;;;;;;;12.95;7.68;;;19.40;63.70;;;;;;20898478;28;20441;-64
2021/09/03 07:41:10;;;;;;;12.38;6.28;;;19.40;63.60;;;;;;20904879;28;20087;-64
2021/09/03 07:51:11;;;;;;;8.52;5.65;;;19.50;63.70;;;;;;20912251;28;20061;-63
2021/09/03 08:01:11;;;;;;;13.38;6.55;;;19.60;63.70;;;;;;20910813;28;20029;-64
2021/09/03 08:11:12;;;;;;;13.40;5.67;;;19.60;63.90;;;;;;20896920;28;20074;-59
2021/09/03 08:21:13;;;;;;;27.90;8.35;;;19.70;63.80;;;;;;20895659;28;20499;-58
2021/09/03 08:31:13;;;;;;;23.85;7.40;;;19.70;64.20;;;;;;20904956;28;20146;-63
2021/09/03 08:41:17;;;;;;;22.50;7.55;;;19.80;64.10;;;;;;20907383;28;20399;-60
2021/09/03 08:51:18;;;;;;;13.63;6.53;;;19.80;64.10;;;;;;20892243;28;20094;-58
2021/09/03 09:01:19;;;;;;;10.63;7.00;;;19.80;64.10;;;;;;20901304;28;20487;-59
2021/09/03 09:11:20;;;;;;;15.32;7.00;;;19.80;64.40;;;;;;20902533;28;20546;-59
2021/09/03 09:21:31;;;;;;;12.02;6.53;;;19.90;64.10;;;;;;20884322;28;20056;-60
2021/09/03 09:31:35;;;;;;;12.27;6.38;;;19.90;64.10;;;;;;20903261;28;20044;-64
2021/09/03 09:41:36;;;;;;;22.98;7.35;;;19.90;64.40;;;;;;20904419;28;20024;-63
2021/09/03 09:51:43;;;;;;;25.58;8.93;;;19.90;64.80;;;;;;20901804;28;20028;-63
2021/09/03 10:01:46;;;;;;;11.85;7.55;;;20.00;64.50;;;;;;20901777;28;20115;-64
2021/09/03 10:11:49;;;;;;;25.35;9.38;;;20.00;64.30;;;;;;20888076;28;20462;-60
2021/09/03 10:21:55;;;;;;;20.08;7.65;;;20.00;64.90;;;;;;20884272;28;20033;-58
2021/09/03 10:32:05;;;;;;;21.77;7.57;;;20.00;64.80;;;;;;20879463;28;20057;-59
2021/09/03 10:42:05;;;;;;;22.52;6.93;;;20.00;64.80;;;;;;20873411;28;20056;-58
2021/09/03 10:52:10;;;;;;;17.02;6.57;;;20.10;64.60;;;;;;20894832;28;20502;-54
2021/09/03 11:02:13;;;;;;;13.18;6.60;;;20.10;64.70;;;;;;20889072;28;20025;-58
2021/09/03 11:12:16;;;;;;;11.68;6.57;;;20.20;64.80;;;;;;20900332;28;20467;-58
2021/09/03 11:22:20;;;;;;;12.70;7.43;;;20.20;64.40;;;;;;20916219;28;20025;-53
2021/09/03 11:32:32;;;;;;;11.10;7.38;;;20.20;64.90;;;;;;20889928;28;20054;-54
2021/09/03 11:42:35;;;;;;;17.55;8.38;;;20.20;64.80;;;;;;20913061;28;20029;-54
2021/09/03 11:52:36;;;;;;;13.02;7.22;;;20.30;64.80;;;;;;20912803;28;20439;-55
2021/09/03 12:02:37;;;;;;;9.95;6.80;;;20.20;64.70;;;;;;20912820;28;20029;-52
2021/09/03 12:12:37;;;;;;;8.73;6.88;;;20.20;64.70;;;;;;20912363;28;20560;-59
2021/09/03 12:22:57;;;;;;;9.90;5.68;;;20.20;64.80;;;;;;20910611;28;20025;-57
2021/09/03 12:33:36;;;;;;;10.77;5.38;;;20.10;64.70;;;;;;20910401;28;20025;-60
2021/09/03 12:43:37;;;;;;;12.32;6.35;;;20.10;64.60;;;;;;20650284;28;20185;-61
2021/09/03 12:53:46;;;;;;;9.95;7.00;;;20.10;64.30;;;;;;20652043;28;20114;-61
2021/09/03 13:03:46;;;;;;;20.02;9.80;;;20.10;64.10;;;;;;20651511;28;20046;-62
2021/09/03 13:13:48;;;;;;;17.83;7.70;;;20.10;64.30;;;;;;20860503;28;20082;-61
2021/09/03 13:23:48;;;;;;;14.25;7.93;;;20.10;64.50;;;;;;20906030;28;20109;-61
2021/09/03 13:33:55;;;;;;;12.82;7.72;;;20.10;64.60;;;;;;20895243;28;20079;-56
2021/09/03 13:43:58;;;;;;;16.30;7.63;;;20.10;64.60;;;;;;20903497;28;20419;-55
2021/09/03 13:53:58;;;;;;;12.57;7.43;;;20.10;64.60;;;;;;20903269;28;20037;-56
2021/09/03 14:03:59;;;;;;;10.70;7.32;;;20.10;64.60;;;;;;20902064;28;20090;-57
2021/09/03 14:14:00;;;;;;;8.37;6.90;;;20.10;64.70;;;;;;20902076;28;20025;-55
2021/09/03 14:24:01;;;;;;;11.43;7.47;;;20.10;64.70;;;;;;20901327;28;20053;-58
2021/09/03 14:34:05;;;;;;;13.57;8.73;;;20.10;64.60;;;;;;20900961;28;20029;-51
2021/09/03 14:44:06;;;;;;;9.68;8.63;;;20.10;64.70;;;;;;20899968;28;20447;-61
2021/09/03 14:54:07;;;;;;;9.68;8.23;;;20.10;64.70;;;;;;20899678;28;20111;-61
2021/09/03 15:04:07;;;;;;;11.82;8.60;;;20.10;64.70;;;;;;20846679;28;20029;-60
2021/09/03 15:14:12;;;;;;;10.05;8.20;;;20.00;65.10;;;;;;20834192;28;20076;-60
2021/09/03 15:24:13;;;;;;;11.38;7.88;;;20.10;64.30;;;;;;20832701;28;20102;-61
2021/09/03 15:34:14;;;;;;;14.27;7.65;;;20.10;64.20;;;;;;20831544;28;20477;-60
2021/09/03 15:44:14;;;;;;;19.17;8.63;;;20.10;64.10;;;;;;20909596;28;20056;-62
2021/09/03 15:54:15;;;;;;;11.50;7.82;;;20.10;64.10;;;;;;20909970;28;20062;-60
2021/09/03 16:04:15;;;;;;;13.00;7.50;;;20.10;64.10;;;;;;20910559;28;20109;-62
2021/09/03 16:14:16;;;;;;;11.55;7.25;;;20.00;64.20;;;;;;20909447;28;20051;-61
2021/09/03 16:24:17;;;;;;;10.90;7.70;;;20.00;64.40;;;;;;20908363;28;20031;-62
2021/09/03 16:34:18;;;;;;;12.70;7.45;;;20.10;64.60;;;;;;20908203;28;20033;-62
2021/09/03 16:44:20;;;;;;;13.98;6.85;;;20.10;64.50;;;;;;20908852;28;20013;-56
2021/09/03 16:54:20;;;;;;;10.02;7.13;;;20.10;64.50;;;;;;20907986;28;20037;-59
2021/09/03 17:04:21;;;;;;;12.95;8.45;;;20.20;64.50;;;;;;20909316;28;20036;-56
2021/09/03 17:14:22;;;;;;;13.47;9.07;;;20.20;64.50;;;;;;20906279;28;20139;-52
2021/09/03 17:24:22;;;;;;;15.93;9.07;;;20.20;64.50;;;;;;20906705;28;20388;-57
2021/09/03 17:34:23;;;;;;;16.70;9.33;;;20.20;65.00;;;;;;20905532;28;20031;-57
2021/09/03 17:44:24;;;;;;;13.88;8.50;;;20.10;65.10;;;;;;20904984;28;20025;-57
2021/09/03 17:54:24;;;;;;;9.93;7.68;;;20.10;65.30;;;;;;20904345;28;20036;-57
2021/09/03 18:04:25;;;;;;;13.18;8.38;;;20.00;65.50;;;;;;20903834;28;20091;-53
2021/09/03 18:14:26;;;;;;;11.80;8.23;;;20.00;65.60;;;;;;20903311;28;20268;-55
2021/09/03 18:24:26;;;;;;;14.43;8.98;;;20.00;65.60;;;;;;20903184;28;20037;-59
2021/09/03 18:34:27;;;;;;;11.13;8.40;;;20.00;65.80;;;;;;20902747;28;20024;-56
2021/09/03 18:44:28;;;;;;;12.52;8.35;;;19.90;65.80;;;;;;20899385;28;20463;-56
2021/09/03 18:54:30;;;;;;;19.15;8.15;;;19.90;66.50;;;;;;20899587;28;20095;-55
2021/09/03 19:04:30;;;;;;;15.65;9.98;;;19.90;66.00;;;;;;20899090;28;20116;-57
2021/09/03 19:14:32;;;;;;;17.80;10.03;;;19.90;66.30;;;;;;20900543;28;20052;-50
2021/09/03 19:24:34;;;;;;;19.73;9.55;;;19.90;66.50;;;;;;20893672;28;20476;-61
2021/09/03 19:34:34;;;;;;;15.88;9.18;;;19.90;66.60;;;;;;20872439;28;20476;-63
2021/09/03 19:44:35;;;;;;;20.38;9.20;;;19.90;66.60;;;;;;20912015;28;20121;-61
2021/09/03 19:54:36;;;;;;;23.33;10.18;;;20.00;67.20;;;;;;20911136;28;20052;-62
2021/09/03 20:04:36;;;;;;;14.90;9.05;;;20.00;66.30;;;;;;20910506;28;20382;-61
2021/09/03 20:14:37;;;;;;;17.48;9.45;;;20.00;66.60;;;;;;20910144;28;20025;-62
2021/09/03 20:24:37;;;;;;;23.33;10.13;;;20.00;66.40;;;;;;20906005;28;20060;-62
2021/09/03 20:34:38;;;;;;;16.38;9.48;;;20.00;66.50;;;;;;20909149;28;20063;-61
2021/09/03 20:44:38;;;;;;;18.88;10.25;;;20.00;66.40;;;;;;20907601;28;20111;-63
2021/09/03 20:54:39;;;;;;;13.93;9.35;;;20.00;66.30;;;;;;20889905;28;20045;-62
2021/09/03 21:04:40;;;;;;;21.35;9.98;;;20.00;66.60;;;;;;20904461;28;20029;-62
2021/09/03 21:14:40;;;;;;;18.42;10.23;;;20.00;66.70;;;;;;20904714;28;20564;-61
2021/09/03 21:19:42;;;;;;;22.52;12.57;;;20.00;66.90;;;;;;2068706;27;21136;-61
2021/09/03 21:20:42;;;;;;;21.70;13.18;;;20.10;66.50;;;;;;2071446;28;20040;-59
2021/09/03 21:21:43;;;;;;;24.85;13.45;;;20.00;66.40;;;;;;2072790;28;20080;-58
2021/09/03 21:22:43;;;;;;;21.55;13.70;;;20.00;66.40;;;;;;2064318;28;20029;-56
2021/09/03 21:23:44;;;;;;;21.65;14.43;;;20.00;66.50;;;;;;2059461;28;20049;-58
2021/09/03 21:24:44;;;;;;;32.75;15.20;;;20.00;66.40;;;;;;2063889;28;20045;-55
2021/09/03 21:25:45;;;;;;;20.45;14.80;;;20.00;66.50;;;;;;2065384;28;20409;-58
2021/09/03 21:26:45;;;;;;;26.25;16.70;;;20.00;66.50;;;;;;2073588;28;20029;-57
2021/09/03 21:27:46;;;;;;;19.67;16.45;;;20.00;66.50;;;;;;2077928;28;20203;-54
2021/09/03 21:28:46;;;;;;;21.33;15.00;;;20.00;66.50;;;;;;2078048;28;20025;-55
2021/09/03 21:29:47;;;;;;;23.40;17.38;;;20.00;66.50;;;;;;2077733;28;20029;-56
2021/09/03 21:30:47;;;;;;;25.00;15.75;;;20.10;66.60;;;;;;2077875;28;20516;-54
2021/09/03 21:31:48;;;;;;;19.17;14.52;;;20.00;66.60;;;;;;2070699;28;20076;-56
2021/09/03 21:32:49;;;;;;;23.83;15.27;;;20.00;66.60;;;;;;2032839;28;20018;-58
2021/09/03 21:33:49;;;;;;;19.42;17.00;;;20.00;66.50;;;;;;2078070;28;20026;-57
2021/09/03 21:34:50;;;;;;;22.20;16.13;;;20.00;66.50;;;;;;2078093;28;20503;-54
2021/09/03 21:35:50;;;;;;;19.10;16.17;;;20.00;66.50;;;;;;2078240;28;20034;-60
2021/09/03 21:36:51;;;;;;;19.90;15.80;;;20.00;66.50;;;;;;2078209;28;20053;-57
2021/09/03 21:37:51;;;;;;;25.20;16.25;;;20.00;66.50;;;;;;2078152;28;20026;-56
2021/09/03 21:38:52;;;;;;;21.67;16.38;;;20.00;66.40;;;;;;2077973;28;20459;-53
2021/09/03 21:39:52;;;;;;;22.05;16.80;;;20.00;66.30;;;;;;2078188;28;20699;-58
2021/09/03 21:40:53;;;;;;;19.77;15.27;;;20.00;66.30;;;;;;2071432;28;20030;-58
2021/09/03 21:41:53;;;;;;;28.88;17.90;;;20.00;66.40;;;;;;2073743;28;20032;-57
2021/09/03 21:42:54;;;;;;;26.30;15.95;;;20.00;66.20;;;;;;2078150;28;20109;-53
2021/09/03 21:43:54;;;;;;;24.15;16.25;;;20.10;66.20;;;;;;2078422;28;20049;-57
2021/09/03 21:44:55;;;;;;;21.20;15.80;;;20.10;66.70;;;;;;2078388;28;20385;-58
2021/09/03 21:45:55;;;;;;;20.58;15.43;;;20.10;67.20;;;;;;2066703;28;20029;-58
2021/09/03 21:56:45;;;;;;;16.95;14.95;;;20.10;66.70;;;;;;20970548;28;20628;-59
2021/09/03 22:06:45;;;;;;;24.35;15.20;;;20.20;65.70;;;;;;20822271;28;20056;-54
2021/09/03 22:16:46;;;;;;;19.80;15.25;;;20.30;65.20;;;;;;20862720;28;20064;-56
2021/09/03 22:26:46;;;;;;;21.20;16.70;;;20.30;65.10;;;;;;20875625;28;20029;-52
2021/09/03 22:36:47;;;;;;;19.67;16.73;;;20.40;65.20;;;;;;20807380;28;20452;-59
2021/09/03 22:46:47;;;;;;;20.58;17.02;;;20.40;64.90;;;;;;20885882;28;20059;-59
2021/09/03 22:56:48;;;;;;;19.63;17.52;;;20.40;64.90;;;;;;20885613;28;20552;-56
2021/09/03 23:06:49;;;;;;;17.90;16.00;;;20.40;64.90;;;;;;20773860;28;20455;-58
2021/09/03 23:16:50;;;;;;;24.92;18.90;;;20.50;64.70;;;;;;20792720;28;20488;-56
2021/09/03 23:26:50;;;;;;;321.53;203.80;;;20.50;65.30;;;;;;20741323;28;21193;-54
2021/09/03 23:36:51;;;;;;;127.25;80.30;;;20.30;66.50;;;;;;20739413;28;20448;-55
2021/09/03 23:46:51;;;;;;;124.45;74.82;;;20.30;66.70;;;;;;20780542;28;20022;-59
2021/09/03 23:56:52;;;;;;;109.03;67.60;;;20.20;66.80;;;;;;20824718;28;20032;-56
